createdAt,value
2019-04-28T00:02:01.332Z,7.40
2019-04-28T00:04:32.084Z,7.40
2019-04-28T00:07:01.869Z,7.40
2019-04-28T00:09:32.492Z,7.40
2019-04-28T00:12:02.516Z,7.40
2019-04-28T00:14:31.976Z,7.40
2019-04-28T00:17:01.465Z,7.40
2019-04-28T00:19:31.095Z,7.40
2019-04-28T00:22:02.239Z,7.40
2019-04-28T00:24:42.446Z,7.30
2019-04-28T00:27:12.298Z,7.30
2019-04-28T00:29:46.045Z,7.40
2019-04-28T00:32:14.107Z,7.40
2019-04-28T00:34:43.572Z,7.40
2019-04-28T00:37:14.692Z,7.30
2019-04-28T00:40:05.086Z,7.30
2019-04-28T00:42:34.608Z,7.30
2019-04-28T00:45:06.742Z,7.30
2019-04-28T00:47:36.354Z,7.30
2019-04-28T00:50:07.813Z,7.30
2019-04-28T00:52:37.277Z,7.30
2019-04-28T00:55:07.937Z,7.30
2019-04-28T00:57:37.406Z,7.30
2019-04-28T01:00:08.167Z,7.30
2019-04-28T01:02:41.248Z,7.30
2019-04-28T01:05:12.281Z,7.30
2019-04-28T01:07:42.021Z,7.20
2019-04-28T01:10:12.801Z,7.30
2019-04-28T01:12:42.349Z,7.20
2019-04-28T01:15:13.670Z,7.20
2019-04-28T01:17:53.785Z,7.20
2019-04-28T01:20:24.601Z,7.20
2019-04-28T01:22:54.142Z,7.10
2019-04-28T01:25:23.594Z,7.10
2019-04-28T01:27:55.010Z,7.10
2019-04-28T01:30:30.738Z,7.10
2019-04-28T01:33:04.778Z,7.00
2019-04-28T01:35:34.300Z,7.00
2019-04-28T01:38:03.834Z,7.00
2019-04-28T01:40:33.286Z,7.00
2019-04-28T01:43:02.744Z,6.90
2019-04-28T01:45:32.194Z,6.90
2019-04-28T01:48:02.275Z,6.90
2019-04-28T01:50:31.841Z,6.90
2019-04-28T01:53:01.310Z,6.90
2019-04-28T01:55:30.830Z,6.90
2019-04-28T01:58:00.300Z,6.90
2019-04-28T02:00:29.885Z,6.90
2019-04-28T02:03:00.179Z,6.90
2019-04-28T02:05:30.569Z,6.90
2019-04-28T02:08:00.369Z,6.90
2019-04-28T02:10:30.165Z,7.00
2019-04-28T02:12:59.965Z,7.00
2019-04-28T02:15:30.179Z,7.00
2019-04-28T02:18:00.095Z,7.00
2019-04-28T02:20:31.163Z,7.00
2019-04-28T02:23:04.959Z,7.00
2019-04-28T02:25:34.403Z,7.00
2019-04-28T02:28:03.887Z,7.00
2019-04-28T02:30:45.442Z,7.00
2019-04-28T02:33:04.416Z,7.00
2019-04-28T02:35:34.454Z,7.00
2019-04-28T02:38:04.115Z,7.00
2019-04-28T02:40:33.566Z,7.00
2019-04-28T02:43:03.098Z,7.00
2019-04-28T02:45:34.486Z,7.00
2019-04-28T02:48:05.606Z,7.10
2019-04-28T02:50:36.716Z,7.00
2019-04-28T02:53:11.173Z,7.10
2019-04-28T02:55:41.357Z,7.00
2019-04-28T02:58:13.374Z,7.00
2019-04-28T03:01:00.346Z,7.10
2019-04-28T03:03:13.051Z,7.10
2019-04-28T03:05:42.575Z,7.10
2019-04-28T03:08:12.051Z,7.10
2019-04-28T03:10:41.637Z,7.20
2019-04-28T03:13:13.355Z,7.20
2019-04-28T03:15:43.007Z,7.10
2019-04-28T03:18:12.537Z,7.20
2019-04-28T03:20:42.130Z,7.20
2019-04-28T03:23:12.597Z,7.10
2019-04-28T03:25:43.764Z,7.10
2019-04-28T03:28:26.915Z,7.10
2019-04-28T03:31:36.525Z,7.10
2019-04-28T03:33:43.488Z,7.10
2019-04-28T03:36:14.766Z,7.10
2019-04-28T03:38:40.703Z,7.10
2019-04-28T03:41:11.219Z,7.10
2019-04-28T03:43:40.913Z,7.10
2019-04-28T03:46:21.225Z,7.10
2019-04-28T03:48:51.010Z,7.10
2019-04-28T03:51:21.295Z,7.10
2019-04-28T03:53:51.979Z,7.10
2019-04-28T03:56:21.790Z,7.20
2019-04-28T03:58:51.258Z,7.20
2019-04-28T04:01:20.897Z,7.10
2019-04-28T04:03:51.498Z,7.20
2019-04-28T04:06:22.588Z,7.20
2019-04-28T04:08:52.399Z,7.20
2019-04-28T04:11:23.474Z,7.20
2019-04-28T04:13:57.531Z,7.20
2019-04-28T04:16:43.974Z,7.20
2019-04-28T04:19:14.706Z,7.20
2019-04-28T04:21:44.153Z,7.30
2019-04-28T04:24:13.613Z,7.30
2019-04-28T04:26:44.130Z,7.30
2019-04-28T04:29:13.605Z,7.30
2019-04-28T04:31:43.046Z,7.40
2019-04-28T04:34:12.518Z,7.30
2019-04-28T04:36:43.045Z,7.40
2019-04-28T04:39:12.497Z,7.40
2019-04-28T04:41:43.592Z,7.50
2019-04-28T04:44:13.033Z,7.50
2019-04-28T04:46:42.466Z,7.50
2019-04-28T04:49:11.930Z,7.50
2019-04-28T04:51:43.953Z,7.50
2019-04-28T04:54:12.470Z,7.60
2019-04-28T04:56:41.903Z,7.60
2019-04-28T04:59:11.366Z,7.60
2019-04-28T05:02:02.019Z,7.60
2019-04-28T05:04:42.394Z,7.70
2019-04-28T05:07:11.830Z,7.70
2019-04-28T05:09:41.293Z,7.80
2019-04-28T05:12:10.734Z,7.70
2019-04-28T05:14:40.201Z,7.80
2019-04-28T05:17:10.399Z,7.70
2019-04-28T05:19:40.239Z,7.70
2019-04-28T05:22:10.520Z,7.80
2019-04-28T05:24:41.619Z,7.80
2019-04-28T05:27:11.057Z,7.80
2019-04-28T05:29:40.525Z,7.80
2019-04-28T05:32:10.758Z,7.80
2019-04-28T05:34:46.800Z,7.80
2019-04-28T05:37:11.498Z,7.80
2019-04-28T05:39:40.958Z,7.80
2019-04-28T05:42:11.329Z,7.90
2019-04-28T05:44:41.064Z,8.00
2019-04-28T05:47:10.568Z,8.00
2019-04-28T05:49:47.758Z,8.10
2019-04-28T05:52:35.160Z,8.10
2019-04-28T05:55:07.909Z,8.20
2019-04-28T05:57:44.744Z,8.40
2019-04-28T06:00:19.740Z,8.50
2019-04-28T06:02:57.002Z,8.60
2019-04-28T06:05:26.574Z,8.70
2019-04-28T06:08:00.444Z,8.70
2019-04-28T06:10:29.982Z,8.70
2019-04-28T06:12:59.797Z,8.70
2019-04-28T06:15:29.537Z,8.80
2019-04-28T06:18:00.136Z,8.80
2019-04-28T06:20:30.799Z,8.80
2019-04-28T06:23:00.242Z,8.80
2019-04-28T06:25:29.703Z,8.90
2019-04-28T06:27:59.142Z,9.10
2019-04-28T06:30:28.606Z,9.20
2019-04-28T06:33:07.609Z,9.40
2019-04-28T06:35:29.140Z,9.70
2019-04-28T06:37:58.649Z,10.00
2019-04-28T06:40:28.121Z,10.20
2019-04-28T06:42:57.574Z,10.40
2019-04-28T06:45:27.049Z,10.50
2019-04-28T06:47:56.493Z,10.60
2019-04-28T06:50:25.981Z,10.70
2019-04-28T06:53:14.780Z,10.70
2019-04-28T06:55:44.253Z,10.90
2019-04-28T06:58:13.711Z,10.80
2019-04-28T07:00:43.183Z,10.70
2019-04-28T07:03:22.686Z,11.00
2019-04-28T07:05:43.750Z,11.00
2019-04-28T07:08:13.999Z,10.90
2019-04-28T07:10:43.579Z,10.80
2019-04-28T07:13:13.034Z,11.10
2019-04-28T07:15:42.523Z,11.10
2019-04-28T07:18:11.979Z,11.20
2019-04-28T07:20:43.095Z,11.10
2019-04-28T07:23:13.586Z,10.80
2019-04-28T07:25:44.135Z,10.90
2019-04-28T07:28:13.586Z,10.80
2019-04-28T07:30:43.056Z,10.60
2019-04-28T07:33:13.579Z,10.80
2019-04-28T07:35:43.055Z,10.70
2019-04-28T07:38:12.588Z,10.50
2019-04-28T07:40:43.239Z,10.60
2019-04-28T07:43:12.687Z,10.60
2019-04-28T07:45:42.163Z,10.30
2019-04-28T07:48:11.619Z,10.40
2019-04-28T07:50:41.094Z,10.50
2019-04-28T07:53:12.187Z,10.70
2019-04-28T07:55:41.657Z,10.60
2019-04-28T07:58:11.123Z,10.60
2019-04-28T08:00:40.624Z,10.80
2019-04-28T08:03:11.131Z,10.70
2019-04-28T08:05:40.598Z,10.80
2019-04-28T08:08:10.054Z,10.90
2019-04-28T08:10:39.547Z,11.00
2019-04-28T08:13:09.070Z,11.10
2019-04-28T08:15:38.526Z,11.30
2019-04-28T08:18:08.070Z,11.50
2019-04-28T08:20:37.533Z,11.70
2019-04-28T08:23:07.011Z,11.70
2019-04-28T08:25:36.466Z,12.20
2019-04-28T08:28:05.944Z,12.60
2019-04-28T08:30:35.472Z,12.60
2019-04-28T08:33:22.804Z,12.30
2019-04-28T08:35:52.256Z,12.20
2019-04-28T08:38:21.733Z,12.50
2019-04-28T08:40:51.178Z,12.40
2019-04-28T08:43:20.667Z,12.20
2019-04-28T08:45:50.123Z,11.90
2019-04-28T08:48:19.667Z,11.90
2019-04-28T08:50:49.119Z,11.90
2019-04-28T08:53:18.735Z,11.60
2019-04-28T08:55:48.190Z,11.60
2019-04-28T08:58:17.675Z,12.00
2019-04-28T09:00:47.197Z,12.20
2019-04-28T09:03:16.822Z,11.80
2019-04-28T09:05:46.275Z,11.90
2019-04-28T09:08:15.756Z,11.60
2019-04-28T09:10:45.212Z,11.00
2019-04-28T09:13:14.687Z,11.10
2019-04-28T09:15:44.143Z,11.10
2019-04-28T09:18:13.700Z,11.10
2019-04-28T09:20:43.155Z,11.10
2019-04-28T09:23:12.639Z,11.30
2019-04-28T09:25:42.099Z,11.30
2019-04-28T09:28:11.578Z,11.50
2019-04-28T09:30:41.269Z,11.50
2019-04-28T09:33:10.747Z,11.60
2019-04-28T09:35:40.200Z,11.60
2019-04-28T09:38:11.870Z,11.80
2019-04-28T09:40:43.348Z,11.90
2019-04-28T09:43:15.552Z,12.30
2019-04-28T09:45:53.355Z,12.10
2019-04-28T09:48:29.046Z,12.20
2019-04-28T09:50:58.459Z,12.40
2019-04-28T09:53:27.933Z,12.20
2019-04-28T09:55:57.390Z,12.20
2019-04-28T09:58:26.867Z,12.20
2019-04-28T10:00:56.327Z,12.20
2019-04-28T10:03:25.807Z,12.30
2019-04-28T10:05:55.264Z,12.30
2019-04-28T10:08:24.742Z,12.50
2019-04-28T10:10:54.201Z,12.40
2019-04-28T10:13:23.671Z,12.30
2019-04-28T10:15:53.593Z,12.20
2019-04-28T10:18:23.639Z,12.00
2019-04-28T10:20:53.107Z,11.90
2019-04-28T10:23:22.583Z,12.00
2019-04-28T10:25:52.047Z,12.20
2019-04-28T10:28:21.531Z,12.00
2019-04-28T10:30:50.993Z,11.80
2019-04-28T10:33:20.467Z,12.00
2019-04-28T10:35:49.932Z,12.20
2019-04-28T10:38:19.410Z,12.30
2019-04-28T10:40:58.983Z,12.40
2019-04-28T10:43:28.462Z,12.60
2019-04-28T10:45:57.991Z,12.50
2019-04-28T10:48:27.467Z,12.80
2019-04-28T10:50:56.930Z,13.00
2019-04-28T10:53:26.484Z,13.20
2019-04-28T10:55:55.934Z,13.60
2019-04-28T10:58:25.419Z,13.80
2019-04-28T11:00:54.938Z,13.90
2019-04-28T11:03:24.415Z,13.90
2019-04-28T11:05:53.866Z,14.10
2019-04-28T11:08:24.986Z,14.00
2019-04-28T11:10:54.910Z,14.10
2019-04-28T11:13:24.459Z,13.80
2019-04-28T11:15:54.051Z,13.40
2019-04-28T11:18:23.536Z,13.30
2019-04-28T11:20:53.074Z,13.00
2019-04-28T11:23:23.328Z,13.10
2019-04-28T11:25:52.810Z,13.10
2019-04-28T11:28:22.286Z,13.30
2019-04-28T11:30:51.881Z,13.60
2019-04-28T11:33:23.070Z,14.10
2019-04-28T11:35:52.595Z,14.30
2019-04-28T11:38:22.067Z,14.40
2019-04-28T11:40:52.587Z,14.50
2019-04-28T11:43:22.067Z,14.40
2019-04-28T11:45:51.543Z,13.60
2019-04-28T11:48:21.015Z,13.20
2019-04-28T11:50:50.467Z,12.80
2019-04-28T11:53:20.100Z,11.70
2019-04-28T11:55:49.552Z,11.00
2019-04-28T11:58:19.032Z,10.40
2019-04-28T12:00:48.491Z,10.00
2019-04-28T12:03:18.133Z,9.70
2019-04-28T12:05:47.671Z,9.70
2019-04-28T12:08:18.209Z,9.60
2019-04-28T12:10:59.011Z,9.20
2019-04-28T12:13:47.219Z,9.00
2019-04-28T12:16:20.975Z,8.90
2019-04-28T12:19:08.382Z,8.90
2019-04-28T12:21:37.833Z,8.90
2019-04-28T12:24:07.292Z,9.10
2019-04-28T12:26:36.735Z,9.30
2019-04-28T12:29:06.223Z,9.60
2019-04-28T12:31:35.670Z,10.10
2019-04-28T12:34:05.219Z,10.80
2019-04-28T12:36:34.672Z,11.30
2019-04-28T12:39:06.159Z,11.70
2019-04-28T12:41:36.980Z,12.30
2019-04-28T12:44:06.457Z,12.80
2019-04-28T12:46:35.920Z,13.50
2019-04-28T12:49:22.138Z,13.70
2019-04-28T12:51:52.731Z,13.80
2019-04-28T12:54:23.895Z,14.10
2019-04-28T12:56:53.323Z,14.50
2019-04-28T12:59:24.439Z,14.30
2019-04-28T13:02:10.896Z,14.80
2019-04-28T13:04:42.015Z,14.90
2019-04-28T13:07:11.472Z,14.90
2019-04-28T13:09:40.939Z,15.50
2019-04-28T13:12:10.391Z,15.30
2019-04-28T13:14:39.872Z,15.60
2019-04-28T13:17:09.314Z,15.70
2019-04-28T13:19:38.791Z,16.40
2019-04-28T13:22:08.382Z,16.80
2019-04-28T13:24:37.854Z,16.50
2019-04-28T13:27:10.086Z,17.90
2019-04-28T13:29:57.810Z,17.40
2019-04-28T13:32:27.276Z,16.70
2019-04-28T13:34:56.763Z,16.40
2019-04-28T13:37:26.200Z,14.70
2019-04-28T13:40:00.485Z,14.20
2019-04-28T13:42:29.938Z,15.20
2019-04-28T13:45:01.057Z,15.40
2019-04-28T13:47:31.474Z,17.20
2019-04-28T13:50:05.275Z,17.90
2019-04-28T13:52:34.723Z,17.50
2019-04-28T13:55:07.379Z,17.90
2019-04-28T13:57:36.831Z,18.50
2019-04-28T14:00:09.201Z,18.20
2019-04-28T14:02:41.269Z,17.50
2019-04-28T14:05:31.127Z,16.80
2019-04-28T14:08:00.604Z,16.50
2019-04-28T14:10:30.117Z,16.10
2019-04-28T14:12:59.980Z,17.50
2019-04-28T14:15:29.459Z,18.20
2019-04-28T14:17:58.908Z,17.90
2019-04-28T14:20:28.379Z,18.80
2019-04-28T14:22:57.828Z,19.60
2019-04-28T14:25:27.352Z,19.80
2019-04-28T14:27:56.756Z,20.50
2019-04-28T14:30:26.238Z,20.00
2019-04-28T14:32:55.749Z,18.80
2019-04-28T14:35:25.319Z,17.60
2019-04-28T14:37:54.773Z,17.20
2019-04-28T14:40:24.231Z,17.30
2019-04-28T14:42:53.862Z,16.60
2019-04-28T14:45:23.364Z,17.20
2019-04-28T14:47:53.157Z,18.00
2019-04-28T14:50:23.246Z,18.50
2019-04-28T14:52:53.765Z,18.10
2019-04-28T14:55:23.238Z,18.90
2019-04-28T14:57:52.695Z,20.10
2019-04-28T15:00:30.702Z,20.90
2019-04-28T15:03:07.529Z,21.40
2019-04-28T15:05:39.280Z,21.10
2019-04-28T15:08:10.543Z,20.50
2019-04-28T15:11:02.179Z,20.50
2019-04-28T15:13:31.690Z,20.40
2019-04-28T15:16:01.160Z,20.70
2019-04-28T15:18:31.714Z,21.40
2019-04-28T15:21:02.269Z,21.50
2019-04-28T15:23:31.774Z,20.20
2019-04-28T15:26:01.497Z,20.10
2019-04-28T15:28:30.923Z,20.60
2019-04-28T15:31:00.397Z,21.10
2019-04-28T15:33:29.884Z,20.20
2019-04-28T15:35:59.327Z,20.60
2019-04-28T15:38:28.781Z,20.90
2019-04-28T15:40:58.258Z,21.00
2019-04-28T15:43:27.711Z,20.00
2019-04-28T15:45:57.191Z,19.80
2019-04-28T15:48:26.645Z,20.20
2019-04-28T15:50:56.163Z,20.50
2019-04-28T15:53:25.666Z,20.20
2019-04-28T15:56:05.814Z,19.90
2019-04-28T15:58:36.743Z,19.00
2019-04-28T16:01:06.358Z,18.50
2019-04-28T16:03:35.875Z,19.60
2019-04-28T16:06:05.531Z,20.50
2019-04-28T16:08:34.985Z,20.90
2019-04-28T16:11:04.622Z,20.80
2019-04-28T16:13:34.099Z,20.40
2019-04-28T16:16:03.743Z,20.60
2019-04-28T16:18:33.227Z,20.00
2019-04-28T16:21:02.675Z,20.70
2019-04-28T16:23:32.147Z,20.90
2019-04-28T16:26:01.603Z,20.70
2019-04-28T16:28:31.079Z,20.10
2019-04-28T16:31:00.539Z,20.50
2019-04-28T16:33:30.013Z,20.40
2019-04-28T16:35:59.464Z,19.80
2019-04-28T16:38:28.938Z,20.20
2019-04-28T16:40:58.398Z,20.20
2019-04-28T16:43:27.870Z,19.60
2019-04-28T16:45:57.318Z,18.70
2019-04-28T16:48:26.794Z,18.80
2019-04-28T16:50:57.326Z,18.70
2019-04-28T16:53:26.794Z,18.80
2019-04-28T16:56:00.562Z,18.70
2019-04-28T16:58:49.650Z,18.60
2019-04-28T17:01:23.175Z,18.50
2019-04-28T17:03:53.719Z,19.50
2019-04-28T17:06:26.418Z,18.90
2019-04-28T17:08:55.894Z,18.90
2019-04-28T17:11:25.347Z,18.40
2019-04-28T17:13:54.822Z,17.90
2019-04-28T17:16:24.276Z,18.50
2019-04-28T17:18:53.823Z,19.00
2019-04-28T17:21:23.274Z,19.60
2019-04-28T17:23:53.823Z,19.90
2019-04-28T17:26:23.270Z,19.90
2019-04-28T17:28:52.755Z,19.60
2019-04-28T17:31:22.276Z,19.60
2019-04-28T17:33:51.758Z,19.80
2019-04-28T17:36:21.299Z,19.80
2019-04-28T17:38:50.772Z,19.50
2019-04-28T17:41:20.305Z,19.00
2019-04-28T17:43:49.770Z,18.90
2019-04-28T17:46:19.691Z,19.30
2019-04-28T17:49:00.094Z,18.90
2019-04-28T17:51:29.716Z,18.30
2019-04-28T17:53:59.197Z,18.20
2019-04-28T17:56:28.651Z,18.00
2019-04-28T17:58:58.127Z,17.50
2019-04-28T18:01:38.178Z,17.00
2019-04-28T18:04:21.218Z,16.50
2019-04-28T18:07:01.363Z,15.80
2019-04-28T18:09:30.907Z,15.00
2019-04-28T18:12:00.359Z,14.60
2019-04-28T18:14:29.902Z,14.30
2019-04-28T18:17:07.019Z,14.10
2019-04-28T18:19:36.827Z,14.00
2019-04-28T18:22:06.343Z,13.80
2019-04-28T18:24:39.829Z,13.30
2019-04-28T18:27:07.964Z,12.90
2019-04-28T18:29:37.434Z,12.40
2019-04-28T18:32:17.189Z,12.10
2019-04-28T18:34:48.367Z,11.70
2019-04-28T18:37:22.628Z,11.50
2019-04-28T18:40:02.767Z,11.20
2019-04-28T18:42:52.503Z,10.90
2019-04-28T18:45:22.219Z,10.70
2019-04-28T18:47:51.670Z,10.20
2019-04-28T18:50:21.235Z,9.90
2019-04-28T18:52:50.671Z,9.50
2019-04-28T18:55:20.142Z,9.20
2019-04-28T18:57:49.658Z,9.10
2019-04-28T19:00:20.839Z,9.10
2019-04-28T19:02:50.363Z,8.90
2019-04-28T19:05:22.574Z,8.70
2019-04-28T19:07:56.495Z,8.60
2019-04-28T19:10:43.986Z,8.40
2019-04-28T19:13:15.137Z,8.30
2019-04-28T19:16:02.884Z,8.20
2019-04-28T19:18:39.806Z,8.10
2019-04-28T19:21:09.255Z,8.00
2019-04-28T19:23:38.790Z,7.90
2019-04-28T19:26:08.245Z,7.70
2019-04-28T19:28:37.722Z,7.60
2019-04-28T19:31:07.171Z,7.60
2019-04-28T19:33:36.638Z,7.60
2019-04-28T19:36:06.092Z,7.60
2019-04-28T19:38:35.630Z,7.80
2019-04-28T19:41:06.151Z,7.90
2019-04-28T19:43:35.707Z,7.60
2019-04-28T19:46:06.799Z,7.60
2019-04-28T19:48:36.351Z,7.50
2019-04-28T19:51:05.806Z,7.30
2019-04-28T19:53:35.245Z,7.20
2019-04-28T19:56:21.471Z,7.30
2019-04-28T19:58:52.578Z,7.10
2019-04-28T20:01:23.672Z,7.00
2019-04-28T20:03:53.139Z,6.70
2019-04-28T20:06:22.652Z,6.60
2019-04-28T20:08:52.213Z,6.50
2019-04-28T20:11:21.659Z,6.50
2019-04-28T20:13:51.122Z,6.60
2019-04-28T20:16:20.591Z,6.50
2019-04-28T20:18:50.227Z,6.40
2019-04-28T20:21:19.832Z,6.20
2019-04-28T20:23:49.284Z,6.30
2019-04-28T20:26:18.822Z,6.20
2019-04-28T20:28:48.338Z,6.10
2019-04-28T20:31:17.811Z,6.00
2019-04-28T20:33:48.337Z,6.00
2019-04-28T20:36:19.455Z,5.90
2019-04-28T20:38:50.551Z,5.80
2019-04-28T20:41:22.748Z,5.80
2019-04-28T20:43:53.566Z,5.80
2019-04-28T20:46:23.038Z,5.70
2019-04-28T20:48:52.563Z,5.50
2019-04-28T20:51:23.105Z,5.40
2019-04-28T20:53:52.560Z,5.40
2019-04-28T20:56:22.035Z,5.30
2019-04-28T20:58:52.560Z,5.20
2019-04-28T21:01:22.036Z,5.10
2019-04-28T21:03:51.558Z,5.10
2019-04-28T21:06:21.036Z,5.00
2019-04-28T21:08:50.493Z,5.00
2019-04-28T21:11:19.965Z,5.00
2019-04-28T21:13:49.423Z,4.90
2019-04-28T21:16:18.890Z,4.90
2019-04-28T21:18:48.342Z,4.90
2019-04-28T21:21:17.820Z,4.80
2019-04-28T21:23:47.273Z,4.80
2019-04-28T21:26:16.748Z,4.80
2019-04-28T21:28:46.199Z,4.70
2019-04-28T21:31:15.676Z,4.60
2019-04-28T21:33:45.131Z,4.60
2019-04-28T21:36:14.606Z,4.60
2019-04-28T21:38:44.085Z,4.50
2019-04-28T21:41:15.227Z,4.40
2019-04-28T21:43:50.147Z,4.60
2019-04-28T21:46:27.435Z,4.50
2019-04-28T21:48:58.534Z,4.50
2019-04-28T21:51:28.013Z,4.70
2019-04-28T21:53:57.467Z,4.60
2019-04-28T21:56:26.943Z,4.50
2019-04-28T21:58:56.394Z,4.50
2019-04-28T22:01:26.088Z,4.70
2019-04-28T22:03:56.511Z,4.70
2019-04-28T22:06:26.061Z,4.60
2019-04-28T22:08:55.515Z,4.50
2019-04-28T22:11:25.067Z,4.40
2019-04-28T22:13:55.491Z,4.40
2019-04-28T22:16:24.972Z,4.30
2019-04-28T22:18:54.423Z,4.20
2019-04-28T22:21:23.899Z,4.20
2019-04-28T22:23:58.015Z,4.20
2019-04-28T22:26:43.631Z,4.20
2019-04-28T22:29:14.392Z,4.20
2019-04-28T22:31:44.415Z,4.20
2019-04-28T22:34:14.702Z,4.10
2019-04-28T22:36:47.529Z,4.10
2019-04-28T22:39:17.147Z,4.10
2019-04-28T22:41:46.692Z,4.10
2019-04-28T22:44:16.147Z,4.00
2019-04-28T22:46:45.624Z,4.00
2019-04-28T22:49:15.200Z,4.00
2019-04-28T22:51:44.619Z,4.00
2019-04-28T22:54:15.715Z,3.90
2019-04-28T22:56:46.908Z,4.00
2019-04-28T22:59:20.846Z,4.10
2019-04-28T23:02:10.643Z,4.00
2019-04-28T23:04:50.634Z,4.00
2019-04-28T23:07:21.147Z,4.00
2019-04-28T23:09:50.598Z,4.00
2019-04-28T23:12:20.071Z,4.10
2019-04-28T23:14:49.528Z,4.00
2019-04-28T23:17:20.250Z,4.00
2019-04-28T23:19:49.770Z,3.90
2019-04-28T23:22:20.959Z,4.00
2019-04-28T23:24:50.420Z,4.10
2019-04-28T23:27:19.899Z,4.10
2019-04-28T23:29:49.346Z,4.10
2019-04-28T23:32:18.822Z,4.00
2019-04-28T23:34:48.283Z,4.00
2019-04-28T23:37:17.759Z,3.90
2019-04-28T23:39:47.289Z,3.90
2019-04-28T23:42:18.402Z,3.90
2019-04-28T23:44:47.857Z,3.90
2019-04-28T23:47:17.327Z,3.80
2019-04-28T23:49:46.784Z,3.80
2019-04-28T23:52:20.550Z,3.70
2019-04-28T23:55:06.798Z,3.60
2019-04-28T23:57:36.275Z,3.60
